createdAt,value
2022-11-03T00:00:33.716Z,11.52
2022-11-03T00:01:33.773Z,11.55
2022-11-03T00:02:33.781Z,11.61
2022-11-03T00:03:33.715Z,11.64
2022-11-03T00:04:33.699Z,11.69
2022-11-03T00:05:33.676Z,11.69
2022-11-03T00:06:33.774Z,11.71
2022-11-03T00:07:33.846Z,11.73
2022-11-03T00:08:33.686Z,11.73
2022-11-03T00:09:33.744Z,11.70
2022-11-03T00:10:33.924Z,11.69
2022-11-03T00:11:33.624Z,11.66
2022-11-03T00:12:33.632Z,11.67
2022-11-03T00:13:33.765Z,11.67
2022-11-03T00:14:33.804Z,11.66
2022-11-03T00:15:33.606Z,11.62
2022-11-03T00:16:33.652Z,11.58
2022-11-03T00:17:34.013Z,11.61
2022-11-03T00:18:34.024Z,11.61
2022-11-03T00:19:34.041Z,11.64
2022-11-03T00:20:33.613Z,11.67
2022-11-03T00:21:33.800Z,11.76
2022-11-03T00:22:34.078Z,11.87
2022-11-03T00:23:34.090Z,11.91
2022-11-03T00:24:33.527Z,11.89
2022-11-03T00:25:34.070Z,11.88
2022-11-03T00:26:34.122Z,11.82
2022-11-03T00:27:33.651Z,11.80
2022-11-03T00:28:33.998Z,11.80
2022-11-03T00:29:34.162Z,11.77
2022-11-03T00:30:33.531Z,11.77
2022-11-03T00:31:33.499Z,11.84
2022-11-03T00:32:33.491Z,11.79
2022-11-03T00:33:33.490Z,11.80
2022-11-03T00:34:33.495Z,11.82
2022-11-03T00:35:33.481Z,11.84
2022-11-03T00:36:33.711Z,11.87
2022-11-03T00:37:33.559Z,11.89
2022-11-03T00:38:33.600Z,11.91
2022-11-03T00:39:33.659Z,11.88
2022-11-03T00:40:33.659Z,11.89
2022-11-03T00:41:33.670Z,11.89
2022-11-03T00:42:33.806Z,11.97
2022-11-03T00:43:33.807Z,11.96
2022-11-03T00:44:33.907Z,11.99
2022-11-03T00:45:33.519Z,11.96
2022-11-03T00:46:33.990Z,11.91
2022-11-03T00:47:34.030Z,11.95
2022-11-03T00:48:33.369Z,11.95
2022-11-03T00:49:34.055Z,11.99
2022-11-03T00:50:33.656Z,12.03
2022-11-03T00:51:33.394Z,11.99
2022-11-03T00:52:33.406Z,12.00
2022-11-03T00:53:33.516Z,12.07
2022-11-03T00:54:33.776Z,12.10
2022-11-03T00:55:33.937Z,12.15
2022-11-03T00:56:33.488Z,12.17
2022-11-03T00:57:33.474Z,12.26
2022-11-03T00:58:33.458Z,12.33
2022-11-03T00:59:33.313Z,12.30
2022-11-03T01:00:33.365Z,12.26
2022-11-03T01:01:33.532Z,12.25
2022-11-03T01:02:33.523Z,12.22
2022-11-03T01:03:33.275Z,12.18
2022-11-03T01:04:33.537Z,12.22
2022-11-03T01:05:33.601Z,12.18
2022-11-03T01:06:33.664Z,12.15
2022-11-03T01:07:33.392Z,12.14
2022-11-03T01:08:33.795Z,12.13
2022-11-03T01:09:33.376Z,12.14
2022-11-03T01:10:33.698Z,12.15
2022-11-03T01:11:33.913Z,12.11
2022-11-03T01:12:33.234Z,12.10
2022-11-03T01:13:33.263Z,12.11
2022-11-03T01:14:33.221Z,12.15
2022-11-03T01:15:33.211Z,12.15
2022-11-03T01:16:33.263Z,12.17
2022-11-03T01:17:33.243Z,12.21
2022-11-03T01:18:33.256Z,12.23
2022-11-03T01:19:33.262Z,12.22
2022-11-03T01:20:33.180Z,12.17
2022-11-03T01:21:33.302Z,12.15
2022-11-03T01:22:33.311Z,12.15
2022-11-03T01:23:33.320Z,12.15
2022-11-03T01:24:33.132Z,12.17
2022-11-03T01:25:33.350Z,12.18
2022-11-03T01:26:33.360Z,12.23
2022-11-03T01:27:33.217Z,12.18
2022-11-03T01:28:33.372Z,12.21
2022-11-03T01:29:33.399Z,12.15
2022-11-03T01:30:33.210Z,12.15
2022-11-03T01:31:33.418Z,12.15
2022-11-03T01:32:33.289Z,12.13
2022-11-03T01:33:33.449Z,12.11
2022-11-03T01:34:33.457Z,12.13
2022-11-03T01:35:33.472Z,12.11
2022-11-03T01:36:33.079Z,12.13
2022-11-03T01:37:33.208Z,12.14
2022-11-03T01:38:33.510Z,12.17
2022-11-03T01:39:33.328Z,12.15
2022-11-03T01:40:33.517Z,12.18
2022-11-03T01:41:33.548Z,12.18
2022-11-03T01:42:33.575Z,12.21
2022-11-03T01:43:33.010Z,12.25
2022-11-03T01:44:33.413Z,12.28
2022-11-03T01:45:33.347Z,12.30
2022-11-03T01:46:33.625Z,12.29
2022-11-03T01:47:32.987Z,12.29
2022-11-03T01:48:33.226Z,12.26
2022-11-03T01:49:32.968Z,12.29
2022-11-03T01:50:32.977Z,12.28
2022-11-03T01:51:33.065Z,12.28
2022-11-03T01:52:33.106Z,12.26
2022-11-03T01:53:32.996Z,12.26
2022-11-03T01:54:33.006Z,12.25
2022-11-03T01:55:33.009Z,12.22
2022-11-03T01:56:33.035Z,12.22
2022-11-03T01:57:32.998Z,12.26
2022-11-03T01:58:33.034Z,12.29
2022-11-03T01:59:33.024Z,12.29
2022-11-03T02:00:33.039Z,12.30
2022-11-03T02:01:32.995Z,12.32
2022-11-03T02:02:32.939Z,12.33
2022-11-03T02:03:32.904Z,12.30
2022-11-03T02:04:32.885Z,12.28
2022-11-03T02:05:32.854Z,12.26
2022-11-03T02:06:32.944Z,12.23
2022-11-03T02:07:32.872Z,12.26
2022-11-03T02:08:32.896Z,12.22
2022-11-03T02:09:32.883Z,12.22
2022-11-03T02:10:32.825Z,12.21
2022-11-03T02:11:32.893Z,12.18
2022-11-03T02:12:32.904Z,12.15
2022-11-03T02:13:32.810Z,12.13
2022-11-03T02:14:32.812Z,12.10
2022-11-03T02:15:32.791Z,12.11
2022-11-03T02:16:32.805Z,12.07
2022-11-03T02:17:32.812Z,12.08
2022-11-03T02:18:32.835Z,12.15
2022-11-03T02:19:32.851Z,12.14
2022-11-03T02:20:32.865Z,12.14
2022-11-03T02:21:32.761Z,12.15
2022-11-03T02:22:32.890Z,12.13
2022-11-03T02:23:32.775Z,12.10
2022-11-03T02:24:32.911Z,12.08
2022-11-03T02:25:32.733Z,12.10
2022-11-03T02:26:32.720Z,12.08
2022-11-03T02:27:32.749Z,12.05
2022-11-03T02:28:32.812Z,12.10
2022-11-03T02:29:32.700Z,12.11
2022-11-03T02:30:32.780Z,12.13
2022-11-03T02:31:32.982Z,12.11
2022-11-03T02:32:32.828Z,12.11
2022-11-03T02:33:32.669Z,12.10
2022-11-03T02:34:32.669Z,12.08
2022-11-03T02:35:32.671Z,12.11
2022-11-03T02:36:33.070Z,12.05
2022-11-03T02:37:33.078Z,12.11
2022-11-03T02:38:33.097Z,12.13
2022-11-03T02:39:32.647Z,12.14
2022-11-03T02:40:33.118Z,12.14
2022-11-03T02:41:33.079Z,12.14
2022-11-03T02:42:33.149Z,12.18
2022-11-03T02:43:33.157Z,12.17
2022-11-03T02:44:32.616Z,12.18
2022-11-03T02:45:32.717Z,12.13
2022-11-03T02:46:32.900Z,12.13
2022-11-03T02:47:32.636Z,12.11
2022-11-03T02:48:33.228Z,12.08
2022-11-03T02:49:33.148Z,12.11
2022-11-03T02:50:32.563Z,12.10
2022-11-03T02:51:32.567Z,12.10
2022-11-03T02:52:33.278Z,12.05
2022-11-03T02:53:32.586Z,12.08
2022-11-03T02:54:32.547Z,12.08
2022-11-03T02:55:32.607Z,12.07
2022-11-03T02:56:32.578Z,12.04
2022-11-03T02:57:32.680Z,12.07
2022-11-03T02:58:32.716Z,12.08
2022-11-03T02:59:32.626Z,12.11
2022-11-03T03:00:32.807Z,12.13
2022-11-03T03:01:32.976Z,12.07
2022-11-03T03:02:32.968Z,12.08
2022-11-03T03:03:32.554Z,12.05
2022-11-03T03:04:32.545Z,12.00
2022-11-03T03:05:32.538Z,12.00
2022-11-03T03:06:32.544Z,11.96
2022-11-03T03:07:32.626Z,11.95
2022-11-03T03:08:32.673Z,11.96
2022-11-03T03:09:32.714Z,11.88
2022-11-03T03:10:32.485Z,11.87
2022-11-03T03:12:32.864Z,11.84
2022-11-03T03:13:32.662Z,11.89
2022-11-03T03:14:32.695Z,11.88
2022-11-03T03:15:32.703Z,11.93
2022-11-03T03:16:32.505Z,11.93
2022-11-03T03:17:32.549Z,11.89
2022-11-03T03:18:32.981Z,11.91
2022-11-03T03:19:32.842Z,11.88
2022-11-03T03:20:33.046Z,11.89
2022-11-03T03:21:32.399Z,11.88
2022-11-03T03:22:32.821Z,11.87
2022-11-03T03:23:32.552Z,11.82
2022-11-03T03:24:32.721Z,11.82
2022-11-03T03:25:32.371Z,11.80
2022-11-03T03:26:33.331Z,11.77
2022-11-03T03:27:32.559Z,11.71
2022-11-03T03:28:32.861Z,11.69
2022-11-03T03:29:33.122Z,11.67
2022-11-03T03:30:32.411Z,11.69
2022-11-03T03:31:32.310Z,11.70
2022-11-03T03:32:33.119Z,11.67
2022-11-03T03:33:32.549Z,11.69
2022-11-03T03:34:35.294Z,11.69
2022-11-03T03:35:33.020Z,11.66
2022-11-03T03:36:32.390Z,11.67
2022-11-03T03:37:32.456Z,11.66
2022-11-03T03:38:32.749Z,11.66
2022-11-03T03:39:32.284Z,11.67
2022-11-03T03:40:32.291Z,11.74
2022-11-03T03:41:32.279Z,11.76
2022-11-03T03:42:32.288Z,11.76
2022-11-03T03:43:32.269Z,11.77
2022-11-03T03:44:32.298Z,11.73
2022-11-03T03:45:32.304Z,11.76
2022-11-03T03:46:32.208Z,11.76
2022-11-03T03:47:32.219Z,11.76
2022-11-03T03:48:32.218Z,11.76
2022-11-03T03:49:32.268Z,11.73
2022-11-03T03:50:32.297Z,11.71
2022-11-03T03:51:32.163Z,11.67
2022-11-03T03:52:32.166Z,11.67
2022-11-03T03:53:32.186Z,11.62
2022-11-03T03:54:32.242Z,11.62
2022-11-03T03:55:32.130Z,11.59
2022-11-03T03:56:32.166Z,11.61
2022-11-03T03:57:32.288Z,11.64
2022-11-03T03:58:32.425Z,11.67
2022-11-03T03:59:32.490Z,11.67
2022-11-03T04:00:32.222Z,11.67
2022-11-03T04:01:32.641Z,11.67
2022-11-03T04:02:32.675Z,11.67
2022-11-03T04:03:32.657Z,11.67
2022-11-03T04:04:32.464Z,11.69
2022-11-03T04:05:32.154Z,11.70
2022-11-03T04:06:32.088Z,11.73
2022-11-03T04:07:32.594Z,11.73
2022-11-03T04:08:32.864Z,11.74
2022-11-03T04:09:32.055Z,11.71
2022-11-03T04:10:32.024Z,11.69
2022-11-03T04:11:34.461Z,11.69
2022-11-03T04:12:32.053Z,11.70
2022-11-03T04:13:32.023Z,11.61
2022-11-03T04:14:32.004Z,11.58
2022-11-03T04:15:32.018Z,11.51
2022-11-03T04:16:32.101Z,11.46
2022-11-03T04:17:32.134Z,11.49
2022-11-03T04:18:32.124Z,11.46
2022-11-03T04:19:31.993Z,11.46
2022-11-03T04:20:32.113Z,11.41
2022-11-03T04:21:32.042Z,11.45
2022-11-03T04:22:32.064Z,11.48
2022-11-03T04:23:31.952Z,11.54
2022-11-03T04:24:32.100Z,11.48
2022-11-03T04:25:32.150Z,11.48
2022-11-03T04:26:32.020Z,11.46
2022-11-03T04:27:31.981Z,11.46
2022-11-03T04:28:32.367Z,11.45
2022-11-03T04:29:32.271Z,11.49
2022-11-03T04:30:31.961Z,11.54
2022-11-03T04:31:32.209Z,11.52
2022-11-03T04:32:31.922Z,11.54
2022-11-03T04:33:31.883Z,11.54
2022-11-03T04:34:32.011Z,11.54
2022-11-03T04:35:32.279Z,11.52
2022-11-03T04:36:32.360Z,11.48
2022-11-03T04:37:32.657Z,11.49
2022-11-03T04:38:31.989Z,11.46
2022-11-03T04:39:31.862Z,11.46
2022-11-03T04:40:32.430Z,11.40
2022-11-03T04:41:31.852Z,11.38
2022-11-03T04:42:31.830Z,11.38
2022-11-03T04:43:32.155Z,11.38
2022-11-03T04:44:32.003Z,11.41
2022-11-03T04:45:31.871Z,11.38
2022-11-03T04:46:31.937Z,11.38
2022-11-03T04:47:32.319Z,11.38
2022-11-03T04:48:31.975Z,11.40
2022-11-03T04:49:31.897Z,11.38
2022-11-03T04:50:31.896Z,11.41
2022-11-03T04:51:31.777Z,11.43
2022-11-03T04:52:31.845Z,11.49
2022-11-03T04:53:31.866Z,11.48
2022-11-03T04:54:31.915Z,11.51
2022-11-03T04:55:31.957Z,11.52
2022-11-03T04:56:31.882Z,11.48
2022-11-03T04:57:31.768Z,11.48
2022-11-03T04:58:31.735Z,11.49
2022-11-03T04:59:31.787Z,11.46
2022-11-03T05:00:31.764Z,11.43
2022-11-03T05:01:31.868Z,11.43
2022-11-03T05:02:31.857Z,11.43
2022-11-03T05:03:31.904Z,11.41
2022-11-03T05:04:31.775Z,11.43
2022-11-03T05:05:31.950Z,11.48
2022-11-03T05:06:32.016Z,11.40
2022-11-03T05:07:31.774Z,11.41
2022-11-03T05:08:31.678Z,11.41
2022-11-03T05:09:32.193Z,11.37
2022-11-03T05:10:32.179Z,11.34
2022-11-03T05:11:32.063Z,11.34
2022-11-03T05:12:32.303Z,11.34
2022-11-03T05:13:32.383Z,11.36
2022-11-03T05:14:32.427Z,11.31
2022-11-03T05:15:31.834Z,11.34
2022-11-03T05:16:32.322Z,11.36
2022-11-03T05:17:31.713Z,11.38
2022-11-03T05:18:32.567Z,11.38
2022-11-03T05:19:31.920Z,11.38
2022-11-03T05:20:35.782Z,11.37
2022-11-03T05:21:32.451Z,11.40
2022-11-03T05:22:31.809Z,11.41
2022-11-03T05:23:31.621Z,11.41
2022-11-03T05:24:31.552Z,11.37
2022-11-03T05:25:31.910Z,11.31
2022-11-03T05:26:31.640Z,11.30
2022-11-03T05:27:31.911Z,11.27
2022-11-03T05:28:32.350Z,11.30
2022-11-03T05:29:31.969Z,11.34
2022-11-03T05:30:31.501Z,11.36
2022-11-03T05:31:31.958Z,11.33
2022-11-03T05:32:31.539Z,11.38
2022-11-03T05:33:31.510Z,11.43
2022-11-03T05:34:31.520Z,11.45
2022-11-03T05:35:31.531Z,11.45
2022-11-03T05:36:31.587Z,11.48
2022-11-03T05:37:31.510Z,11.45
2022-11-03T05:38:31.499Z,11.46
2022-11-03T05:39:31.598Z,11.48
2022-11-03T05:40:31.607Z,11.52
2022-11-03T05:41:31.608Z,11.54
2022-11-03T05:42:31.625Z,11.58
2022-11-03T05:43:31.637Z,11.56
2022-11-03T05:44:31.418Z,11.66
2022-11-03T05:45:31.449Z,11.62
2022-11-03T05:46:31.448Z,11.64
2022-11-03T05:47:31.447Z,11.64
2022-11-03T05:48:31.457Z,11.67
2022-11-03T05:49:31.388Z,11.64
2022-11-03T05:50:31.416Z,11.66
2022-11-03T05:51:31.476Z,11.66
2022-11-03T05:52:31.481Z,11.64
2022-11-03T05:53:31.574Z,11.61
2022-11-03T05:54:31.605Z,11.66
2022-11-03T05:55:31.644Z,11.66
2022-11-03T05:56:31.375Z,11.71
2022-11-03T05:57:31.768Z,11.71
2022-11-03T05:58:31.765Z,11.80
2022-11-03T05:59:31.414Z,11.85
2022-11-03T06:00:31.315Z,11.85
2022-11-03T06:01:31.573Z,11.85
2022-11-03T06:02:31.936Z,11.88
2022-11-03T06:03:31.900Z,11.87
2022-11-03T06:04:31.425Z,11.85
2022-11-03T06:05:31.927Z,11.87
2022-11-03T06:06:32.582Z,11.88
2022-11-03T06:07:31.284Z,11.85
2022-11-03T06:08:31.596Z,11.84
2022-11-03T06:09:31.295Z,11.79
2022-11-03T06:10:31.242Z,11.76
2022-11-03T06:11:31.275Z,11.76
2022-11-03T06:12:31.241Z,11.74
2022-11-03T06:13:31.326Z,11.69
2022-11-03T06:14:31.517Z,11.62
2022-11-03T06:15:31.362Z,11.59
2022-11-03T06:16:31.218Z,11.58
2022-11-03T06:17:31.193Z,11.55
2022-11-03T06:18:31.312Z,11.55
2022-11-03T06:19:31.323Z,11.52
2022-11-03T06:20:31.232Z,11.52
2022-11-03T06:21:31.331Z,11.56
2022-11-03T06:22:31.332Z,11.51
2022-11-03T06:23:31.221Z,11.52
2022-11-03T06:24:31.378Z,11.51
2022-11-03T06:25:31.381Z,11.51
2022-11-03T06:26:31.373Z,11.55
2022-11-03T06:27:31.225Z,11.64
2022-11-03T06:28:31.309Z,11.69
2022-11-03T06:29:31.110Z,11.73
2022-11-03T06:30:31.175Z,11.79
2022-11-03T06:31:31.139Z,11.84
2022-11-03T06:32:31.149Z,11.88
2022-11-03T06:33:31.163Z,11.91
2022-11-03T06:34:31.185Z,11.87
2022-11-03T06:35:31.190Z,11.91
2022-11-03T06:36:31.198Z,11.95
2022-11-03T06:37:31.254Z,11.96
2022-11-03T06:38:31.068Z,11.96
2022-11-03T06:39:31.041Z,11.95
2022-11-03T06:40:31.163Z,11.96
2022-11-03T06:41:31.270Z,11.95
2022-11-03T06:42:32.172Z,11.95
2022-11-03T06:43:31.318Z,11.95
2022-11-03T06:44:31.309Z,11.95
2022-11-03T06:45:30.988Z,11.99
2022-11-03T06:46:31.057Z,11.95
2022-11-03T06:47:31.126Z,12.00
2022-11-03T06:48:31.066Z,12.03
2022-11-03T06:49:31.036Z,12.04
2022-11-03T06:50:30.965Z,12.04
2022-11-03T06:51:31.017Z,12.03
2022-11-03T06:52:31.016Z,12.04
2022-11-03T06:53:30.957Z,12.04
2022-11-03T06:54:31.107Z,12.04
2022-11-03T06:55:31.144Z,12.04
2022-11-03T06:56:31.997Z,12.07
2022-11-03T06:57:31.244Z,12.10
2022-11-03T06:58:31.393Z,12.04
2022-11-03T06:59:31.114Z,12.05
2022-11-03T07:00:36.907Z,12.13
2022-11-03T07:01:31.577Z,12.17
2022-11-03T07:02:30.999Z,12.22
2022-11-03T07:03:31.227Z,12.21
2022-11-03T07:04:30.914Z,12.23
2022-11-03T07:05:30.923Z,12.26
2022-11-03T07:06:31.416Z,12.26
2022-11-03T07:07:31.381Z,12.30
2022-11-03T07:08:30.873Z,12.32
2022-11-03T07:09:31.472Z,12.35
2022-11-03T07:10:31.323Z,12.40
2022-11-03T07:11:30.896Z,12.40
2022-11-03T07:12:31.091Z,12.40
2022-11-03T07:13:31.512Z,12.44
2022-11-03T07:14:30.982Z,12.43
2022-11-03T07:15:31.693Z,12.40
2022-11-03T07:16:31.712Z,12.41
2022-11-03T07:17:30.872Z,12.40
2022-11-03T07:18:30.842Z,12.43
2022-11-03T07:19:30.931Z,12.48
2022-11-03T07:20:31.381Z,12.48
2022-11-03T07:21:31.761Z,12.53
2022-11-03T07:22:31.551Z,12.48
2022-11-03T07:23:31.054Z,12.53
2022-11-03T07:24:30.800Z,12.55
2022-11-03T07:25:31.630Z,12.59
2022-11-03T07:26:30.862Z,12.62
2022-11-03T07:27:30.929Z,12.63
2022-11-03T07:28:30.873Z,12.68
2022-11-03T07:29:30.770Z,12.69
2022-11-03T07:30:30.889Z,12.73
2022-11-03T07:31:30.831Z,12.77
2022-11-03T07:32:30.898Z,12.79
2022-11-03T07:33:30.760Z,12.79
2022-11-03T07:34:30.969Z,12.80
2022-11-03T07:35:46.930Z,12.80
2022-11-03T07:36:31.075Z,12.83
2022-11-03T07:37:30.729Z,12.84
2022-11-03T07:38:31.140Z,12.80
2022-11-03T07:39:30.753Z,12.83
2022-11-03T07:40:30.705Z,12.88
2022-11-03T07:41:34.066Z,12.87
2022-11-03T07:42:30.787Z,12.87
2022-11-03T07:43:30.839Z,12.87
2022-11-03T07:44:30.669Z,12.84
2022-11-03T07:45:30.617Z,12.87
2022-11-03T07:46:30.619Z,12.84
2022-11-03T07:47:30.628Z,12.87
2022-11-03T07:48:30.628Z,12.87
2022-11-03T07:49:30.746Z,12.87
2022-11-03T07:50:30.756Z,12.88
2022-11-03T07:51:30.746Z,12.93
2022-11-03T07:52:30.595Z,12.95
2022-11-03T07:53:30.746Z,12.93
2022-11-03T07:54:30.705Z,12.96
2022-11-03T07:55:30.527Z,12.96
2022-11-03T07:56:30.851Z,12.96
2022-11-03T07:57:30.576Z,12.99
2022-11-03T07:58:31.115Z,12.99
2022-11-03T07:59:30.665Z,12.96
2022-11-03T08:00:30.975Z,12.95
2022-11-03T08:01:30.627Z,12.93
2022-11-03T08:02:31.245Z,12.96
2022-11-03T08:03:30.494Z,12.98
2022-11-03T08:04:31.106Z,12.96
2022-11-03T08:05:31.326Z,12.99
2022-11-03T08:06:30.514Z,12.99
2022-11-03T08:07:30.503Z,13.02
2022-11-03T08:08:30.522Z,13.01
2022-11-03T08:09:30.477Z,13.04
2022-11-03T08:10:30.613Z,13.05
2022-11-03T08:11:30.636Z,13.09
2022-11-03T08:12:30.713Z,13.11
2022-11-03T08:13:30.755Z,13.09
2022-11-03T08:14:30.423Z,13.09
2022-11-03T08:15:30.843Z,13.14
2022-11-03T08:16:30.763Z,13.17
2022-11-03T08:17:30.402Z,13.20
2022-11-03T08:18:30.387Z,13.24
2022-11-03T08:19:30.401Z,13.24
2022-11-03T08:20:30.392Z,13.20
2022-11-03T08:21:30.391Z,13.29
2022-11-03T08:22:30.531Z,13.27
2022-11-03T08:23:30.544Z,13.29
2022-11-03T08:24:30.444Z,13.30
2022-11-03T08:25:30.392Z,13.32
2022-11-03T08:26:30.412Z,13.36
2022-11-03T08:27:30.411Z,13.38
2022-11-03T08:28:30.422Z,13.42
2022-11-03T08:29:30.439Z,13.40
2022-11-03T08:30:30.469Z,13.39
2022-11-03T08:31:30.461Z,13.42
2022-11-03T08:32:30.311Z,13.46
2022-11-03T08:33:30.374Z,13.46
2022-11-03T08:34:30.350Z,13.46
2022-11-03T08:35:33.157Z,13.51
2022-11-03T08:36:30.461Z,13.57
2022-11-03T08:37:30.251Z,13.58
2022-11-03T08:38:30.542Z,13.58
2022-11-03T08:39:30.352Z,13.57
2022-11-03T08:40:30.579Z,13.61
2022-11-03T08:41:30.590Z,13.64
2022-11-03T08:42:30.428Z,13.63
2022-11-03T08:43:30.299Z,13.67
2022-11-03T08:44:30.387Z,13.64
2022-11-03T08:45:30.250Z,13.65
2022-11-03T08:46:30.288Z,13.65
2022-11-03T08:47:30.268Z,13.71
2022-11-03T08:48:30.379Z,13.73
2022-11-03T08:49:30.437Z,13.75
2022-11-03T08:50:30.486Z,13.79
2022-11-03T08:51:30.338Z,13.82
2022-11-03T08:52:30.589Z,13.85
2022-11-03T08:53:30.297Z,13.88
2022-11-03T08:54:30.789Z,13.96
2022-11-03T08:55:30.718Z,13.97
2022-11-03T08:56:30.585Z,13.98
2022-11-03T08:57:30.147Z,14.04
2022-11-03T08:58:30.830Z,14.09
2022-11-03T08:59:30.149Z,14.12
2022-11-03T09:00:30.577Z,14.13
2022-11-03T09:01:30.975Z,14.18
2022-11-03T09:02:30.195Z,14.16
2022-11-03T09:03:30.236Z,14.19
2022-11-03T09:04:30.905Z,14.23
2022-11-03T09:05:30.087Z,14.21
2022-11-03T09:06:30.087Z,14.23
2022-11-03T09:10:35.369Z,14.22
2022-11-03T09:11:30.114Z,14.18
2022-11-03T09:12:30.833Z,14.18
2022-11-03T09:13:30.167Z,14.22
2022-11-03T09:14:30.575Z,14.28
2022-11-03T09:15:30.325Z,14.28
2022-11-03T09:16:30.135Z,14.31
2022-11-03T09:17:30.244Z,14.28
2022-11-03T09:18:30.724Z,14.30
2022-11-03T09:19:30.136Z,14.30
2022-11-03T09:20:30.364Z,14.31
2022-11-03T09:21:30.001Z,14.37
2022-11-03T09:22:30.014Z,14.37
2022-11-03T09:23:30.092Z,14.44
2022-11-03T09:24:30.016Z,14.46
2022-11-03T09:25:30.114Z,14.46
2022-11-03T09:26:30.035Z,14.46
2022-11-03T09:27:30.104Z,14.48
2022-11-03T09:28:30.163Z,14.38
2022-11-03T09:29:36.405Z,14.41
2022-11-03T09:30:30.183Z,14.41
2022-11-03T09:31:29.932Z,14.44
2022-11-03T09:32:29.912Z,14.45
2022-11-03T09:33:29.905Z,14.46
2022-11-03T09:34:30.383Z,14.49
2022-11-03T09:35:30.214Z,14.49
2022-11-03T09:36:30.000Z,14.51
2022-11-03T09:37:30.633Z,14.49
2022-11-03T09:38:30.277Z,14.48
2022-11-03T09:39:30.283Z,14.52
2022-11-03T09:40:29.892Z,14.49
2022-11-03T09:41:52.323Z,14.56
2022-11-03T09:42:30.774Z,14.56
2022-11-03T09:43:30.253Z,14.55
2022-11-03T09:44:30.759Z,14.55
2022-11-03T09:45:30.129Z,14.56
2022-11-03T09:46:29.827Z,14.59
2022-11-03T09:47:29.801Z,14.58
2022-11-03T09:48:29.827Z,14.64
2022-11-03T09:49:29.801Z,14.64
2022-11-03T09:50:29.811Z,14.64
2022-11-03T09:51:29.761Z,14.64
2022-11-03T09:52:29.845Z,14.67
2022-11-03T09:53:29.751Z,14.73
2022-11-03T09:54:30.459Z,14.77
2022-11-03T09:55:29.809Z,14.74
2022-11-03T09:56:29.792Z,14.74
2022-11-03T09:57:29.784Z,14.77
2022-11-03T09:58:29.799Z,14.83
2022-11-03T09:59:31.210Z,14.78
2022-11-03T10:00:29.907Z,14.85
2022-11-03T10:01:30.050Z,14.87
2022-11-03T10:02:30.030Z,14.87
2022-11-03T10:03:29.939Z,14.90
2022-11-03T10:04:29.708Z,14.87
2022-11-03T10:05:29.672Z,14.93
2022-11-03T10:06:29.662Z,14.96
2022-11-03T10:07:29.641Z,14.93
2022-11-03T10:08:29.942Z,14.97
2022-11-03T10:09:29.708Z,14.97
2022-11-03T10:10:29.731Z,14.99
2022-11-03T10:11:30.088Z,15.05
2022-11-03T10:12:30.004Z,15.12
2022-11-03T10:13:30.107Z,15.20
2022-11-03T10:14:29.697Z,15.22
2022-11-03T10:15:30.139Z,15.33
2022-11-03T10:16:30.147Z,15.35
2022-11-03T10:17:29.617Z,15.40
2022-11-03T10:18:29.647Z,15.30
2022-11-03T10:19:33.861Z,15.30
2022-11-03T10:20:29.748Z,15.32
2022-11-03T10:21:29.550Z,15.40
2022-11-03T10:22:29.866Z,15.41
2022-11-03T10:23:29.565Z,15.47
2022-11-03T10:24:29.565Z,15.40
2022-11-03T10:25:29.566Z,15.44
2022-11-03T10:26:29.537Z,15.43
2022-11-03T10:27:29.506Z,15.43
2022-11-03T10:28:29.597Z,15.33
2022-11-03T10:29:29.574Z,15.29
2022-11-03T10:30:32.479Z,15.26
2022-11-03T10:31:29.558Z,15.23
2022-11-03T10:32:29.565Z,15.15
2022-11-03T10:33:29.545Z,15.19
2022-11-03T10:34:29.588Z,15.14
2022-11-03T10:35:29.656Z,15.12
2022-11-03T10:36:29.445Z,15.07
2022-11-03T10:37:29.652Z,15.08
2022-11-03T10:38:29.656Z,15.04
2022-11-03T10:39:29.664Z,15.01
2022-11-03T10:40:47.354Z,15.04
2022-11-03T10:41:29.484Z,14.95
2022-11-03T10:42:34.970Z,14.99
2022-11-03T10:43:29.484Z,15.07
2022-11-03T10:44:29.486Z,15.10
2022-11-03T10:45:29.385Z,15.10
2022-11-03T10:46:49.519Z,15.14
2022-11-03T10:47:29.423Z,15.20
2022-11-03T10:48:29.433Z,15.26
2022-11-03T10:49:29.432Z,15.26
2022-11-03T10:50:29.443Z,15.20
2022-11-03T10:51:29.461Z,15.17
2022-11-03T10:52:29.396Z,15.14
2022-11-03T10:53:29.368Z,15.19
2022-11-03T10:54:29.493Z,15.20
2022-11-03T10:55:29.396Z,15.20
2022-11-03T10:56:29.382Z,15.25
2022-11-03T10:57:29.533Z,15.25
2022-11-03T10:58:29.311Z,15.19
2022-11-03T10:59:29.314Z,15.19
2022-11-03T11:00:29.381Z,15.15
2022-11-03T11:01:29.752Z,15.14
2022-11-03T11:02:29.454Z,15.14
2022-11-03T11:03:29.562Z,15.14
2022-11-03T11:04:29.659Z,15.11
2022-11-03T11:05:29.643Z,15.11
2022-11-03T11:06:29.339Z,15.14
2022-11-03T11:07:29.301Z,15.14
2022-11-03T11:08:29.365Z,15.17
2022-11-03T11:09:29.291Z,15.14
2022-11-03T11:10:29.368Z,15.05
2022-11-03T11:11:29.260Z,15.07
2022-11-03T11:12:29.433Z,15.11
2022-11-03T11:13:29.273Z,15.14
2022-11-03T11:14:29.258Z,15.14
2022-11-03T11:15:29.575Z,15.23
2022-11-03T11:16:29.632Z,15.26
2022-11-03T11:17:29.470Z,15.25
2022-11-03T11:18:29.848Z,15.27
2022-11-03T11:19:29.540Z,15.27
2022-11-03T11:20:29.802Z,15.29
2022-11-03T11:21:31.981Z,15.30
2022-11-03T11:22:29.698Z,15.29
2022-11-03T11:23:29.818Z,15.30
2022-11-03T11:24:29.221Z,15.36
2022-11-03T11:25:29.899Z,15.41
2022-11-03T11:26:29.160Z,15.36
2022-11-03T11:27:29.164Z,15.30
2022-11-03T11:28:29.440Z,15.33
2022-11-03T11:29:29.850Z,15.32
2022-11-03T11:30:29.971Z,15.33
2022-11-03T11:31:29.998Z,15.35
2022-11-03T11:32:29.421Z,15.35
2022-11-03T11:33:29.799Z,15.38
2022-11-03T11:34:29.105Z,15.33
2022-11-03T11:35:29.168Z,15.40
2022-11-03T11:36:29.389Z,15.38
2022-11-03T11:37:29.369Z,15.43
2022-11-03T11:38:29.868Z,15.43
2022-11-03T11:39:30.036Z,15.38
2022-11-03T11:40:29.906Z,15.44
2022-11-03T11:41:29.179Z,15.43
2022-11-03T11:42:30.515Z,15.45
2022-11-03T11:43:29.907Z,15.45
2022-11-03T11:44:29.057Z,15.38
2022-11-03T11:45:29.068Z,15.41
2022-11-03T11:46:29.041Z,15.38
2022-11-03T11:47:29.018Z,15.40
2022-11-03T11:48:29.108Z,15.44
2022-11-03T11:49:29.167Z,15.43
2022-11-03T11:50:29.219Z,15.40
2022-11-03T11:51:29.248Z,15.38
2022-11-03T11:52:29.305Z,15.33
2022-11-03T11:53:31.988Z,15.33
2022-11-03T11:54:29.388Z,15.33
2022-11-03T11:55:28.985Z,15.33
2022-11-03T11:56:28.966Z,15.27
2022-11-03T11:57:29.518Z,15.30
2022-11-03T11:58:29.567Z,15.30
2022-11-03T11:59:28.917Z,15.29
2022-11-03T12:00:28.969Z,15.33
2022-11-03T12:01:29.044Z,15.33
2022-11-03T12:02:29.090Z,15.30
2022-11-03T12:03:28.933Z,15.33
2022-11-03T12:04:29.015Z,15.33
2022-11-03T12:05:29.052Z,15.36
2022-11-03T12:06:29.145Z,15.36
2022-11-03T12:07:29.136Z,15.29
2022-11-03T12:08:29.246Z,15.26
2022-11-03T12:09:29.126Z,15.29
2022-11-03T12:10:29.234Z,15.29
2022-11-03T12:11:28.896Z,15.32
2022-11-03T12:12:29.544Z,15.30
2022-11-03T12:13:28.885Z,15.27
2022-11-03T12:14:29.624Z,15.29
2022-11-03T12:15:28.933Z,15.35
2022-11-03T12:16:29.726Z,15.29
2022-11-03T12:17:28.943Z,15.36
2022-11-03T12:18:28.974Z,15.40
2022-11-03T12:19:28.973Z,15.47
2022-11-03T12:20:29.384Z,15.52
2022-11-03T12:21:28.802Z,15.59
2022-11-03T12:22:29.123Z,15.66
2022-11-03T12:23:29.483Z,15.76
2022-11-03T12:24:28.774Z,15.85
2022-11-03T12:25:28.806Z,15.98
2022-11-03T12:26:28.755Z,16.05
2022-11-03T12:27:28.707Z,16.16
2022-11-03T12:28:28.935Z,16.24
2022-11-03T12:29:28.995Z,16.26
2022-11-03T12:30:29.022Z,16.37
2022-11-03T12:31:31.716Z,16.40
2022-11-03T12:32:35.984Z,16.42
2022-11-03T12:33:29.143Z,16.54
2022-11-03T12:34:28.875Z,16.59
2022-11-03T12:35:28.735Z,16.67
2022-11-03T12:36:28.634Z,16.64
2022-11-03T12:37:28.685Z,16.62
2022-11-03T12:38:28.704Z,16.69
2022-11-03T12:39:28.672Z,16.70
2022-11-03T12:40:28.692Z,16.70
2022-11-03T12:41:28.939Z,16.76
2022-11-03T12:42:28.703Z,16.69
2022-11-03T12:43:28.731Z,16.62
2022-11-03T12:44:28.612Z,16.55
2022-11-03T12:45:28.744Z,16.47
2022-11-03T12:46:28.623Z,16.42
2022-11-03T12:47:28.772Z,16.36
2022-11-03T12:48:28.782Z,16.26
2022-11-03T12:49:28.702Z,16.24
2022-11-03T12:50:28.761Z,16.25
2022-11-03T12:51:28.812Z,16.29
2022-11-03T12:52:28.691Z,16.32
2022-11-03T12:53:28.569Z,16.36
2022-11-03T12:54:28.528Z,16.33
2022-11-03T12:56:28.900Z,16.34
2022-11-03T12:57:28.804Z,16.39